Time;durP1;ratioP1;P1;durP2;ratioP2;P2;SDS_P1;SDS_P2;PMS_P1;PMS_P2;Temp;Humidity;BMP_temperature;BMP_pressure;BME280_temperature;BME280_humidity;BME280_pressure;Samples;Min_cycle;Max_cycle;Signal;HPM_P1;HPM_P2
2021/08/29 00:01:30;;;;;;;7.28;3.30;;;16.10;99.90;;;;;;4101613;28;20070;-73
2021/08/29 00:03:31;;;;;;;5.65;3.40;;;16.10;99.90;;;;;;4094871;28;20428;-73
2021/08/29 00:05:32;;;;;;;5.00;3.25;;;16.00;99.90;;;;;;4100917;28;20031;-73
2021/08/29 00:07:32;;;;;;;7.50;3.13;;;16.00;99.90;;;;;;4102419;28;20039;-73
2021/08/29 00:09:33;;;;;;;6.70;4.13;;;16.00;99.90;;;;;;4100975;28;20038;-74
2021/08/29 00:11:34;;;;;;;4.65;2.83;;;16.00;99.90;;;;;;4100529;28;20510;-73
2021/08/29 00:13:34;;;;;;;7.45;3.13;;;16.00;99.90;;;;;;4096842;28;20039;-73
2021/08/29 00:15:35;;;;;;;5.35;3.47;;;16.00;99.90;;;;;;4100344;28;20098;-73
2021/08/29 00:17:36;;;;;;;8.18;3.58;;;16.10;99.90;;;;;;4102621;28;21474;-73
2021/08/29 00:19:36;;;;;;;9.05;3.00;;;16.10;99.90;;;;;;4102420;28;20110;-73
2021/08/29 00:21:37;;;;;;;6.50;3.58;;;16.10;99.90;;;;;;4116356;28;20034;-73
2021/08/29 00:23:38;;;;;;;9.20;3.50;;;16.00;99.90;;;;;;4108768;28;20046;-74
2021/08/29 00:25:38;;;;;;;7.50;3.65;;;16.00;99.90;;;;;;4100720;28;20069;-73
2021/08/29 00:27:39;;;;;;;7.70;3.78;;;16.00;99.90;;;;;;4102104;28;20043;-74
2021/08/29 00:29:39;;;;;;;7.07;3.90;;;16.00;99.90;;;;;;4103374;28;20059;-73
2021/08/29 00:31:40;;;;;;;6.55;3.60;;;16.00;99.90;;;;;;4102184;28;20368;-73
2021/08/29 00:33:41;;;;;;;8.50;3.60;;;16.00;99.90;;;;;;4099944;28;20063;-73
2021/08/29 00:35:41;;;;;;;5.25;3.33;;;16.00;99.90;;;;;;4102315;28;20122;-73
2021/08/29 00:37:42;;;;;;;6.07;3.53;;;16.00;99.90;;;;;;4100597;28;20109;-73
2021/08/29 00:39:43;;;;;;;5.00;3.22;;;15.90;99.90;;;;;;4118254;28;20037;-73
2021/08/29 00:41:44;;;;;;;7.03;2.90;;;16.00;99.90;;;;;;4134921;28;20109;-73
2021/08/29 00:43:45;;;;;;;6.30;3.55;;;16.00;99.90;;;;;;4109685;28;20415;-73
2021/08/29 00:45:46;;;;;;;5.72;3.47;;;16.00;99.90;;;;;;4101731;28;20034;-74
2021/08/29 00:47:47;;;;;;;7.78;3.78;;;16.00;99.90;;;;;;4101902;28;20027;-73
2021/08/29 00:49:47;;;;;;;7.57;3.53;;;16.00;99.90;;;;;;4104164;28;20039;-73
2021/08/29 00:52:00;;;;;;;9.40;3.92;;;16.00;99.90;;;;;;4104716;28;20038;-73
2021/08/29 00:54:00;;;;;;;5.35;3.58;;;15.90;99.90;;;;;;4103545;28;20078;-73
2021/08/29 00:56:01;;;;;;;8.70;4.00;;;15.90;99.90;;;;;;4100865;28;20016;-73
2021/08/29 00:58:01;;;;;;;7.43;3.45;;;16.00;99.90;;;;;;4112697;28;20552;-73
2021/08/29 01:00:04;;;;;;;5.05;3.25;;;16.00;99.90;;;;;;4103987;28;20365;-74
2021/08/29 01:02:11;;;;;;;8.10;3.78;;;16.00;99.90;;;;;;4100953;28;20032;-73
2021/08/29 01:04:20;;;;;;;6.50;2.88;;;16.00;99.90;;;;;;4105809;28;20039;-73
2021/08/29 01:06:28;;;;;;;7.93;3.60;;;15.90;99.90;;;;;;4098423;28;20054;-73
2021/08/29 01:08:37;;;;;;;7.70;3.35;;;15.90;99.90;;;;;;4101253;28;20045;-73
2021/08/29 01:10:56;;;;;;;8.80;3.08;;;16.00;99.90;;;;;;4094455;28;20098;-73
2021/08/29 01:12:58;;;;;;;6.70;3.40;;;16.00;99.90;;;;;;4099662;28;20110;-73
2021/08/29 01:15:03;;;;;;;9.75;3.22;;;16.00;99.90;;;;;;4108074;28;20043;-73
2021/08/29 01:17:05;;;;;;;9.20;3.33;;;16.00;99.90;;;;;;4106110;28;20034;-74
2021/08/29 01:19:16;;;;;;;8.48;3.88;;;15.90;99.90;;;;;;4088494;28;20148;-73
2021/08/29 01:21:21;;;;;;;9.20;3.15;;;15.90;99.90;;;;;;4101259;28;20035;-74
2021/08/29 01:23:22;;;;;;;5.35;3.05;;;15.90;99.90;;;;;;4116087;28;20055;-73
2021/08/29 01:25:31;;;;;;;7.60;2.90;;;16.00;99.90;;;;;;4096529;28;20041;-74
2021/08/29 01:27:49;;;;;;;6.93;3.47;;;16.00;99.90;;;;;;4091996;28;20082;-73
2021/08/29 01:29:50;;;;;;;5.75;3.45;;;16.00;99.90;;;;;;4097091;28;20059;-74
2021/08/29 01:31:51;;;;;;;6.53;3.17;;;16.00;99.90;;;;;;4101268;28;20043;-73
2021/08/29 01:33:52;;;;;;;6.85;2.85;;;16.00;99.90;;;;;;4101582;28;20162;-73
2021/08/29 01:35:53;;;;;;;15.15;3.95;;;16.00;99.90;;;;;;4103778;28;20430;-74
2021/08/29 01:37:54;;;;;;;8.63;3.38;;;16.00;99.90;;;;;;4101747;28;20035;-74
2021/08/29 01:39:56;;;;;;;6.28;3.15;;;16.00;99.90;;;;;;4101623;28;20387;-73
2021/08/29 01:41:56;;;;;;;6.82;3.22;;;16.00;99.90;;;;;;4115233;28;20113;-73
2021/08/29 01:43:57;;;;;;;6.93;3.30;;;16.00;99.90;;;;;;4101294;28;20041;-74
2021/08/29 01:45:58;;;;;;;4.45;3.15;;;16.00;99.90;;;;;;4096916;28;20090;-74
2021/08/29 01:47:59;;;;;;;6.30;2.90;;;16.00;99.90;;;;;;4101156;28;20538;-73
2021/08/29 01:50:01;;;;;;;7.18;3.30;;;16.00;99.90;;;;;;4103468;28;20033;-74
2021/08/29 01:52:02;;;;;;;6.57;3.20;;;16.00;99.90;;;;;;4101131;28;20378;-73
2021/08/29 01:54:02;;;;;;;8.25;3.50;;;15.90;99.90;;;;;;4100850;28;20038;-74
2021/08/29 01:56:04;;;;;;;8.05;4.05;;;15.90;99.90;;;;;;4103932;28;20039;-73
2021/08/29 01:58:04;;;;;;;9.75;2.97;;;15.90;99.90;;;;;;4093484;28;20747;-74
2021/08/29 02:00:06;;;;;;;10.70;3.65;;;15.90;99.90;;;;;;4100521;28;20063;-74
2021/08/29 02:02:07;;;;;;;7.55;3.08;;;15.80;99.90;;;;;;4131199;28;20030;-73
2021/08/29 02:04:08;;;;;;;9.90;3.92;;;15.90;99.90;;;;;;4105183;28;20042;-74
2021/08/29 02:06:29;;;;;;;7.07;3.55;;;15.80;99.90;;;;;;4117199;28;20035;-74
2021/08/29 02:08:30;;;;;;;7.82;3.72;;;15.90;99.90;;;;;;4122554;28;20026;-73
2021/08/29 02:10:31;;;;;;;6.18;3.45;;;15.80;99.90;;;;;;4099167;28;20031;-74
2021/08/29 02:12:39;;;;;;;9.13;3.50;;;15.90;99.90;;;;;;4101764;28;20589;-73
2021/08/29 02:15:05;;;;;;;8.55;3.42;;;15.90;99.90;;;;;;4101402;28;20048;-74
2021/08/29 02:17:10;;;;;;;9.93;3.53;;;15.90;99.90;;;;;;4106270;28;20043;-73
2021/08/29 02:19:17;;;;;;;6.35;3.80;;;15.90;99.90;;;;;;4102433;28;20035;-73
2021/08/29 02:21:19;;;;;;;6.70;3.67;;;15.90;99.90;;;;;;4103164;28;20038;-74
2021/08/29 02:23:23;;;;;;;8.73;3.95;;;15.90;99.90;;;;;;4093045;28;20399;-73
2021/08/29 02:25:24;;;;;;;7.40;3.72;;;15.90;99.90;;;;;;4106894;28;20126;-74
2021/08/29 02:27:25;;;;;;;9.15;3.78;;;15.90;99.90;;;;;;4103328;28;20483;-73
2021/08/29 02:29:26;;;;;;;8.15;3.58;;;15.90;99.90;;;;;;4103757;28;20030;-74
2021/08/29 02:31:27;;;;;;;10.23;4.25;;;15.90;99.90;;;;;;4106720;28;20391;-74
2021/08/29 02:33:27;;;;;;;9.45;4.00;;;15.90;99.90;;;;;;4102558;28;20126;-74
2021/08/29 02:35:28;;;;;;;8.88;4.00;;;15.90;99.90;;;;;;4109547;28;20027;-73
2021/08/29 02:37:30;;;;;;;7.40;3.72;;;15.90;99.90;;;;;;4103851;28;20475;-73
2021/08/29 02:39:33;;;;;;;4.82;3.45;;;15.90;99.90;;;;;;4103335;28;20026;-73
2021/08/29 02:41:37;;;;;;;10.90;3.95;;;15.90;99.90;;;;;;4103049;28;20093;-74
2021/08/29 02:43:39;;;;;;;6.28;3.70;;;15.90;99.90;;;;;;4101875;28;20054;-74
2021/08/29 02:45:42;;;;;;;6.95;3.53;;;15.90;99.90;;;;;;4103180;28;20063;-74
2021/08/29 02:47:43;;;;;;;8.20;3.83;;;15.90;99.90;;;;;;4103571;28;20035;-74
2021/08/29 02:49:44;;;;;;;8.07;3.83;;;15.90;99.90;;;;;;4136339;28;20485;-74
2021/08/29 02:51:44;;;;;;;13.80;4.38;;;16.00;99.90;;;;;;4108677;28;20038;-73
2021/08/29 02:53:45;;;;;;;11.68;4.18;;;15.90;99.90;;;;;;4106369;28;20035;-74
2021/08/29 02:55:54;;;;;;;6.72;3.65;;;16.00;99.90;;;;;;4102087;28;20031;-74
2021/08/29 02:58:01;;;;;;;6.80;3.40;;;15.90;99.90;;;;;;4103560;28;20037;-73
2021/08/29 03:00:03;;;;;;;6.95;3.75;;;16.00;99.90;;;;;;4108292;28;20042;-74
2021/08/29 03:02:11;;;;;;;7.43;3.60;;;15.90;99.90;;;;;;4103571;28;20059;-73
2021/08/29 03:04:12;;;;;;;9.52;4.07;;;16.00;99.90;;;;;;4103306;28;20041;-74
2021/08/29 03:06:13;;;;;;;7.07;3.60;;;16.00;99.90;;;;;;4116007;28;20035;-74
2021/08/29 03:08:14;;;;;;;10.48;3.90;;;16.00;99.90;;;;;;4104885;28;20027;-74
2021/08/29 03:10:15;;;;;;;12.30;4.00;;;16.00;99.90;;;;;;4101434;28;20051;-74
2021/08/29 03:12:16;;;;;;;9.95;4.05;;;16.00;99.90;;;;;;4100676;28;20039;-73
2021/08/29 03:14:16;;;;;;;10.27;3.78;;;15.90;99.90;;;;;;4103105;28;20049;-73
2021/08/29 03:16:17;;;;;;;6.93;3.53;;;16.00;99.90;;;;;;4101576;28;20047;-73
2021/08/29 03:18:18;;;;;;;10.05;3.78;;;16.00;99.90;;;;;;4102894;28;20106;-73
2021/08/29 03:20:19;;;;;;;9.50;3.20;;;16.00;99.90;;;;;;4101404;28;20027;-74
2021/08/29 03:22:20;;;;;;;6.28;3.75;;;16.00;99.90;;;;;;4103092;28;20038;-73
2021/08/29 03:24:21;;;;;;;11.65;3.95;;;15.90;99.90;;;;;;4103385;28;20041;-73
2021/08/29 03:26:22;;;;;;;7.03;3.67;;;16.00;99.90;;;;;;4102637;28;20042;-73
2021/08/29 03:28:23;;;;;;;8.15;4.10;;;16.00;99.90;;;;;;4101570;28;20141;-74
2021/08/29 03:30:23;;;;;;;8.65;3.50;;;16.00;99.90;;;;;;4094981;28;20126;-74
2021/08/29 03:32:24;;;;;;;13.18;3.72;;;16.00;99.90;;;;;;4110664;28;20049;-74
2021/08/29 03:34:26;;;;;;;8.07;3.63;;;16.00;99.90;;;;;;4103190;28;20058;-74
2021/08/29 03:36:30;;;;;;;7.28;3.47;;;16.00;99.90;;;;;;4103164;28;20042;-73
2021/08/29 03:38:33;;;;;;;11.55;3.42;;;16.00;99.90;;;;;;4102085;28;20090;-74
2021/08/29 03:40:34;;;;;;;9.82;4.38;;;16.00;99.90;;;;;;4102754;28;20035;-73
2021/08/29 03:42:36;;;;;;;9.80;3.72;;;16.10;99.90;;;;;;4097273;28;20585;-73
2021/08/29 03:44:37;;;;;;;8.55;3.83;;;16.00;99.90;;;;;;4101276;28;20788;-73
2021/08/29 03:46:37;;;;;;;11.63;3.58;;;16.10;99.90;;;;;;4101368;28;20110;-74
2021/08/29 03:48:38;;;;;;;10.45;3.63;;;16.10;99.90;;;;;;4102381;28;20053;-73
2021/08/29 03:50:39;;;;;;;7.95;3.25;;;16.10;99.90;;;;;;4132856;28;20034;-74
2021/08/29 03:52:41;;;;;;;11.48;4.07;;;16.00;99.90;;;;;;4108883;28;20534;-74
2021/08/29 03:54:44;;;;;;;8.95;3.72;;;16.00;99.90;;;;;;4103001;28;20057;-73
2021/08/29 03:56:46;;;;;;;7.22;3.47;;;16.00;99.90;;;;;;4109158;28;20042;-73
2021/08/29 03:58:47;;;;;;;8.23;3.63;;;16.00;99.90;;;;;;4102387;28;20037;-74
2021/08/29 04:00:47;;;;;;;9.57;4.20;;;16.00;99.90;;;;;;4100212;28;20066;-74
2021/08/29 04:02:48;;;;;;;10.77;4.00;;;16.00;99.90;;;;;;4100414;28;20049;-73
2021/08/29 04:04:49;;;;;;;8.82;4.18;;;16.00;99.90;;;;;;4097943;28;20038;-74
2021/08/29 04:06:52;;;;;;;9.85;3.90;;;16.00;99.90;;;;;;4099424;28;20063;-74
2021/08/29 04:09:02;;;;;;;7.93;4.18;;;16.00;99.90;;;;;;4102699;28;20464;-73
2021/08/29 04:11:03;;;;;;;9.30;3.92;;;16.00;99.90;;;;;;4105660;28;20038;-73
2021/08/29 04:13:05;;;;;;;11.73;4.53;;;16.00;99.90;;;;;;4098514;28;20438;-74
2021/08/29 04:15:06;;;;;;;10.43;4.50;;;16.00;99.90;;;;;;4116485;28;20062;-74
2021/08/29 04:17:08;;;;;;;9.93;3.90;;;16.00;99.90;;;;;;4102130;28;20042;-73
2021/08/29 04:19:09;;;;;;;7.25;4.22;;;16.00;99.90;;;;;;4102161;28;20101;-74
2021/08/29 04:21:11;;;;;;;9.32;3.42;;;16.00;99.90;;;;;;4108712;28;20076;-73
2021/08/29 04:23:12;;;;;;;13.05;4.15;;;16.00;99.90;;;;;;4101161;28;20527;-74
2021/08/29 04:25:15;;;;;;;13.57;4.32;;;16.00;99.90;;;;;;4102231;28;20035;-73
2021/08/29 04:27:16;;;;;;;18.10;4.57;;;16.10;99.90;;;;;;4101370;28;20467;-74
2021/08/29 04:29:17;;;;;;;10.88;4.53;;;16.00;99.90;;;;;;4108677;28;20027;-74
2021/08/29 04:31:38;;;;;;;10.20;4.25;;;16.00;99.90;;;;;;4102151;28;20061;-74
2021/08/29 04:33:39;;;;;;;11.40;4.43;;;16.00;99.90;;;;;;4105803;28;20525;-74
2021/08/29 04:35:40;;;;;;;11.30;4.13;;;16.00;99.90;;;;;;4102003;28;20126;-74
2021/08/29 04:37:42;;;;;;;12.65;4.57;;;16.00;99.90;;;;;;4099633;28;20043;-74
2021/08/29 04:39:42;;;;;;;10.35;3.88;;;16.00;99.90;;;;;;4101876;28;20118;-74
2021/08/29 04:41:43;;;;;;;15.68;4.25;;;16.00;99.90;;;;;;4101607;28;20055;-74
2021/08/29 04:43:43;;;;;;;11.57;3.72;;;16.00;99.90;;;;;;4104605;28;20039;-73
2021/08/29 04:45:44;;;;;;;9.98;4.18;;;16.00;99.90;;;;;;4104535;28;20039;-74
2021/08/29 04:47:44;;;;;;;15.10;4.93;;;16.00;99.90;;;;;;4101545;28;20118;-74
2021/08/29 04:49:45;;;;;;;11.13;4.00;;;16.00;99.90;;;;;;4102001;28;20051;-73
2021/08/29 04:51:46;;;;;;;7.78;3.58;;;16.00;99.90;;;;;;4099507;28;20067;-74
2021/08/29 04:53:46;;;;;;;13.82;4.25;;;16.00;99.90;;;;;;4101504;28;20031;-74
2021/08/29 04:55:47;;;;;;;10.05;3.92;;;16.00;99.90;;;;;;4101961;28;20035;-74
2021/08/29 04:57:47;;;;;;;9.30;4.20;;;16.00;99.90;;;;;;4101514;28;20027;-74
2021/08/29 04:59:48;;;;;;;8.38;3.95;;;16.00;99.90;;;;;;4132069;28;20105;-74
2021/08/29 05:01:49;;;;;;;10.45;4.00;;;16.00;99.90;;;;;;4119215;28;20471;-74
2021/08/29 05:03:49;;;;;;;11.00;4.35;;;16.10;99.90;;;;;;4105906;28;20027;-74
2021/08/29 05:05:50;;;;;;;10.88;3.75;;;16.00;99.90;;;;;;4101740;28;20081;-74
2021/08/29 05:07:50;;;;;;;9.68;3.75;;;16.10;99.90;;;;;;4104442;28;20050;-73
2021/08/29 05:09:51;;;;;;;9.15;4.10;;;16.10;99.90;;;;;;4087874;28;20035;-74
2021/08/29 05:11:52;;;;;;;12.57;4.35;;;16.10;99.90;;;;;;4085783;28;20050;-74
2021/08/29 05:13:52;;;;;;;8.93;4.00;;;16.10;99.90;;;;;;4111915;28;20089;-74
2021/08/29 05:15:55;;;;;;;11.73;4.00;;;16.10;99.90;;;;;;4101334;28;20138;-74
2021/08/29 05:17:56;;;;;;;9.38;4.07;;;16.10;99.90;;;;;;4102438;28;20122;-73
2021/08/29 05:19:57;;;;;;;9.50;3.92;;;16.10;99.90;;;;;;4100538;28;20471;-73
2021/08/29 05:21:58;;;;;;;10.63;3.92;;;16.20;99.90;;;;;;4119415;28;20031;-74
2021/08/29 05:23:59;;;;;;;11.90;4.25;;;16.20;99.90;;;;;;4093360;28;20069;-74
2021/08/29 05:25:59;;;;;;;8.77;3.72;;;16.20;99.90;;;;;;4091232;28;20042;-74
2021/08/29 05:28:00;;;;;;;10.55;5.20;;;16.20;99.90;;;;;;4108619;28;20027;-73
2021/08/29 05:30:00;;;;;;;13.60;4.20;;;16.20;99.90;;;;;;4085455;28;20039;-73
2021/08/29 05:32:01;;;;;;;5.60;3.65;;;16.20;99.90;;;;;;4118188;28;20125;-74
2021/08/29 05:34:02;;;;;;;8.65;4.22;;;16.20;99.90;;;;;;4109655;28;20062;-73
2021/08/29 05:36:03;;;;;;;9.43;4.22;;;16.20;99.90;;;;;;4091942;28;20036;-74
2021/08/29 05:38:03;;;;;;;8.13;4.13;;;16.20;99.90;;;;;;4100678;28;20118;-73
2021/08/29 05:40:05;;;;;;;12.90;3.65;;;16.20;99.90;;;;;;4081201;28;20837;-74
2021/08/29 05:42:05;;;;;;;13.65;4.32;;;16.20;99.90;;;;;;4085002;28;20039;-74
2021/08/29 05:44:06;;;;;;;8.85;3.60;;;16.20;99.90;;;;;;4106324;28;20034;-74
2021/08/29 05:46:07;;;;;;;9.02;4.50;;;16.20;99.90;;;;;;4101340;28;20047;-74
2021/08/29 05:48:07;;;;;;;11.50;4.15;;;16.20;99.90;;;;;;4083227;28;20568;-74
2021/08/29 05:50:08;;;;;;;10.63;3.85;;;16.20;99.90;;;;;;4102393;28;20041;-73
2021/08/29 05:52:09;;;;;;;9.57;4.53;;;16.20;99.90;;;;;;4086360;28;20118;-74
2021/08/29 05:54:09;;;;;;;11.35;4.18;;;16.30;99.90;;;;;;4099887;28;20034;-74
2021/08/29 05:56:10;;;;;;;10.10;4.30;;;16.30;99.90;;;;;;4098021;28;20101;-74
2021/08/29 05:58:10;;;;;;;11.23;3.97;;;16.30;99.90;;;;;;4083850;28;20126;-74
2021/08/29 06:00:11;;;;;;;9.63;4.32;;;16.30;99.90;;;;;;4103102;28;20514;-74
2021/08/29 06:02:12;;;;;;;10.07;3.63;;;16.30;99.90;;;;;;4102764;28;21210;-74
2021/08/29 06:04:13;;;;;;;10.52;4.13;;;16.30;99.90;;;;;;4101125;28;20036;-74
2021/08/29 06:06:13;;;;;;;9.73;4.03;;;16.30;99.90;;;;;;4098061;28;20468;-74
2021/08/29 06:08:14;;;;;;;9.82;4.10;;;16.30;99.90;;;;;;4082126;28;20103;-74
2021/08/29 06:10:14;;;;;;;7.22;3.72;;;16.30;99.90;;;;;;4098035;28;20035;-74
2021/08/29 06:12:15;;;;;;;11.18;3.90;;;16.30;99.90;;;;;;4097699;28;20107;-74
2021/08/29 06:14:17;;;;;;;11.63;3.83;;;16.30;99.90;;;;;;4102364;28;20410;-74
2021/08/29 06:16:17;;;;;;;10.83;3.83;;;16.30;99.90;;;;;;4086675;28;20039;-74
2021/08/29 06:18:18;;;;;;;9.80;4.05;;;16.30;99.90;;;;;;4103226;28;20278;-74
2021/08/29 06:20:19;;;;;;;6.95;3.70;;;16.30;99.90;;;;;;4103754;28;20105;-74
2021/08/29 06:22:19;;;;;;;8.93;3.90;;;16.40;99.90;;;;;;4082077;28;20031;-74
2021/08/29 06:24:20;;;;;;;9.65;4.10;;;16.30;99.90;;;;;;4102804;28;20057;-74
2021/08/29 06:26:20;;;;;;;14.18;3.80;;;16.30;99.90;;;;;;4100052;28;20383;-74
2021/08/29 06:28:21;;;;;;;11.77;4.00;;;16.30;99.90;;;;;;4090489;28;20058;-75
2021/08/29 06:30:22;;;;;;;8.38;3.70;;;16.30;99.90;;;;;;4100345;28;20051;-74
2021/08/29 06:32:22;;;;;;;7.25;3.50;;;16.40;99.90;;;;;;4083905;28;20101;-75
2021/08/29 06:34:23;;;;;;;9.50;3.47;;;16.40;99.90;;;;;;4101475;28;20467;-75
2021/08/29 06:36:24;;;;;;;9.68;3.83;;;16.30;99.90;;;;;;4104074;28;20035;-74
2021/08/29 06:38:24;;;;;;;7.63;3.53;;;16.40;99.90;;;;;;4103605;28;20042;-74
2021/08/29 06:40:25;;;;;;;7.53;3.45;;;16.40;99.90;;;;;;4107714;28;20038;-74
2021/08/29 06:42:25;;;;;;;9.82;3.85;;;16.40;99.90;;;;;;4102487;28;20560;-73
2021/08/29 06:44:26;;;;;;;6.97;3.20;;;16.40;99.90;;;;;;4105102;28;20130;-72
2021/08/29 06:46:27;;;;;;;10.25;3.63;;;16.40;99.90;;;;;;4127057;28;20117;-73
2021/08/29 06:48:27;;;;;;;7.57;3.50;;;16.50;99.90;;;;;;4101476;28;20475;-73
2021/08/29 06:50:28;;;;;;;7.72;3.63;;;16.50;99.90;;;;;;4103094;28;20439;-73
2021/08/29 06:52:28;;;;;;;13.63;3.35;;;16.50;99.90;;;;;;4129790;28;20137;-73
2021/08/29 06:54:29;;;;;;;11.25;3.80;;;16.50;99.90;;;;;;4103358;28;20035;-73
2021/08/29 06:56:30;;;;;;;8.00;3.40;;;16.50;99.90;;;;;;4116339;28;20191;-73
2021/08/29 06:58:30;;;;;;;9.52;3.35;;;16.50;99.90;;;;;;4087622;28;20028;-73
2021/08/29 07:00:31;;;;;;;13.85;3.80;;;16.50;99.90;;;;;;4102081;28;20173;-73
2021/08/29 07:02:31;;;;;;;6.47;2.90;;;16.50;99.90;;;;;;4102442;28;20035;-73
2021/08/29 07:04:32;;;;;;;10.23;3.67;;;16.50;99.90;;;;;;4105317;28;20711;-73
2021/08/29 07:06:32;;;;;;;10.57;3.92;;;16.50;99.90;;;;;;4105013;28;20524;-73
2021/08/29 07:08:33;;;;;;;6.97;3.13;;;16.50;99.90;;;;;;4103798;28;20587;-73
2021/08/29 07:10:34;;;;;;;10.48;3.20;;;16.50;99.90;;;;;;4100689;28;20031;-73
2021/08/29 07:12:35;;;;;;;9.38;3.50;;;16.60;99.90;;;;;;4107785;28;20053;-73
2021/08/29 07:14:35;;;;;;;6.82;3.33;;;16.60;99.90;;;;;;4105256;28;20545;-73
2021/08/29 07:16:36;;;;;;;11.52;4.38;;;16.60;99.90;;;;;;4104379;28;20110;-73
2021/08/29 07:18:37;;;;;;;8.18;3.33;;;16.50;99.90;;;;;;4101154;28;20035;-73
2021/08/29 07:20:37;;;;;;;9.15;3.40;;;16.60;99.90;;;;;;4105043;28;20039;-73
2021/08/29 07:22:38;;;;;;;13.40;4.28;;;16.50;99.90;;;;;;4103765;28;20059;-73
2021/08/29 07:24:38;;;;;;;7.35;3.17;;;16.60;99.90;;;;;;4105045;28;20031;-73
2021/08/29 07:26:39;;;;;;;8.65;3.38;;;16.60;99.90;;;;;;4101842;28;20035;-73
2021/08/29 07:28:44;;;;;;;11.70;3.70;;;16.60;99.90;;;;;;4105613;28;20114;-73
2021/08/29 07:30:45;;;;;;;12.88;3.88;;;16.60;99.90;;;;;;4136527;28;20050;-73
2021/08/29 07:32:46;;;;;;;9.38;3.58;;;16.60;99.90;;;;;;4104623;28;20117;-72
2021/08/29 07:34:46;;;;;;;9.70;3.63;;;16.60;99.90;;;;;;4104183;28;20031;-73
2021/08/29 07:36:47;;;;;;;8.02;3.30;;;16.60;99.90;;;;;;4093174;29;20027;-74
2021/08/29 07:38:47;;;;;;;8.25;3.25;;;16.60;99.90;;;;;;4108900;28;20031;-73
2021/08/29 07:40:48;;;;;;;7.60;3.55;;;16.70;99.90;;;;;;4104103;28;20066;-73
2021/08/29 07:42:49;;;;;;;10.02;3.78;;;16.70;99.90;;;;;;4104124;28;20102;-73
2021/08/29 07:44:49;;;;;;;7.85;4.03;;;16.70;99.90;;;;;;4102529;28;20035;-73
2021/08/29 07:46:50;;;;;;;9.27;3.97;;;16.70;99.90;;;;;;4102834;28;20039;-72
2021/08/29 07:48:51;;;;;;;8.40;3.45;;;16.70;99.90;;;;;;4103809;28;20548;-72
2021/08/29 07:50:51;;;;;;;11.68;4.18;;;16.70;99.90;;;;;;4105713;28;20047;-72
2021/08/29 07:52:52;;;;;;;12.13;4.50;;;16.70;99.90;;;;;;4104725;28;20702;-72
2021/08/29 07:54:53;;;;;;;7.75;3.60;;;16.60;99.90;;;;;;4107514;28;20030;-72
2021/08/29 07:56:53;;;;;;;13.48;4.22;;;16.70;99.90;;;;;;4103898;28;20058;-72
2021/08/29 07:58:54;;;;;;;12.23;4.82;;;16.70;99.90;;;;;;4101706;28;20139;-72
2021/08/29 08:00:54;;;;;;;11.10;3.95;;;16.70;99.90;;;;;;4103605;28;20380;-72
2021/08/29 08:02:55;;;;;;;15.70;4.15;;;16.70;99.90;;;;;;4103124;28;20041;-72
2021/08/29 08:04:56;;;;;;;10.25;4.20;;;16.70;99.90;;;;;;4104599;28;20039;-72
2021/08/29 08:06:57;;;;;;;8.45;3.85;;;16.70;99.90;;;;;;4105564;28;20129;-72
2021/08/29 08:08:58;;;;;;;9.20;3.42;;;16.60;99.90;;;;;;4084780;28;20032;-72
2021/08/29 08:10:59;;;;;;;10.23;3.60;;;16.60;99.90;;;;;;4119916;28;20077;-73
2021/08/29 08:12:59;;;;;;;6.68;3.20;;;16.60;99.90;;;;;;4102648;28;20023;-73
2021/08/29 08:15:00;;;;;;;7.38;3.58;;;16.60;99.90;;;;;;4101920;28;20059;-73
2021/08/29 08:17:01;;;;;;;7.80;3.20;;;16.60;99.90;;;;;;4104661;28;20031;-72
2021/08/29 08:19:03;;;;;;;7.15;2.92;;;16.60;99.90;;;;;;4104612;28;20032;-72
2021/08/29 08:21:04;;;;;;;10.48;3.38;;;16.60;99.90;;;;;;4101956;28;20039;-73
2021/08/29 08:23:04;;;;;;;6.78;3.33;;;16.60;99.90;;;;;;4104106;28;20050;-73
2021/08/29 08:25:06;;;;;;;9.45;3.50;;;16.60;99.90;;;;;;4104956;28;20039;-73
2021/08/29 08:27:07;;;;;;;14.70;3.17;;;16.60;99.90;;;;;;4104792;28;20042;-73
2021/08/29 08:29:08;;;;;;;5.82;2.90;;;16.60;99.90;;;;;;4106137;28;20031;-73
2021/08/29 08:31:08;;;;;;;7.03;2.47;;;16.50;99.90;;;;;;4104407;28;20595;-73
2021/08/29 08:33:09;;;;;;;5.68;2.70;;;16.60;99.90;;;;;;4108110;28;20495;-73
2021/08/29 08:35:10;;;;;;;6.47;3.08;;;16.60;99.90;;;;;;4109146;28;20042;-73
2021/08/29 08:37:10;;;;;;;8.35;3.05;;;16.50;99.90;;;;;;4104509;28;20047;-73
2021/08/29 08:39:11;;;;;;;9.50;3.40;;;16.60;99.90;;;;;;4109692;28;20159;-73
2021/08/29 08:41:12;;;;;;;7.38;2.85;;;16.60;99.90;;;;;;4102336;28;20031;-74
2021/08/29 08:43:12;;;;;;;10.18;3.40;;;16.60;99.90;;;;;;4099348;28;20062;-74
2021/08/29 08:45:14;;;;;;;8.15;3.40;;;16.50;99.90;;;;;;4106295;28;20043;-74
2021/08/29 08:47:20;;;;;;;7.20;3.30;;;16.40;99.90;;;;;;4103545;28;20371;-74
2021/08/29 08:49:22;;;;;;;8.27;3.28;;;16.50;99.90;;;;;;4106364;28;20035;-74
2021/08/29 08:51:27;;;;;;;10.52;3.45;;;16.40;99.90;;;;;;4099094;28;20058;-74
2021/08/29 08:53:31;;;;;;;8.07;3.25;;;16.40;99.90;;;;;;4100536;28;20113;-73
2021/08/29 08:55:32;;;;;;;10.52;3.35;;;16.50;99.90;;;;;;4132204;28;20045;-74
2021/08/29 08:57:34;;;;;;;8.15;3.22;;;16.50;99.90;;;;;;4108167;28;20050;-75
2021/08/29 08:59:35;;;;;;;6.03;3.20;;;16.50;99.90;;;;;;4102965;28;20035;-75
2021/08/29 09:01:36;;;;;;;6.13;2.83;;;16.40;99.90;;;;;;4103238;28;20037;-75
2021/08/29 09:03:37;;;;;;;7.78;3.20;;;16.40;99.90;;;;;;4103648;28;20523;-75
2021/08/29 09:05:39;;;;;;;6.72;3.20;;;16.30;99.90;;;;;;4102866;28;20058;-75
2021/08/29 09:07:39;;;;;;;8.95;3.25;;;16.30;99.90;;;;;;4106081;28;20084;-75
2021/08/29 09:09:40;;;;;;;10.20;3.38;;;16.40;99.90;;;;;;4101281;28;20113;-75
2021/08/29 09:11:41;;;;;;;8.52;3.38;;;16.40;99.90;;;;;;4102189;28;20045;-75
2021/08/29 09:13:50;;;;;;;9.00;3.17;;;16.30;99.90;;;;;;4101383;28;20030;-75
2021/08/29 09:16:12;;;;;;;9.95;3.90;;;16.30;99.90;;;;;;4104250;28;20034;-75
2021/08/29 09:18:13;;;;;;;10.13;3.53;;;16.20;99.90;;;;;;4101414;28;20055;-75
2021/08/29 09:20:38;;;;;;;10.40;3.30;;;16.10;99.90;;;;;;4102478;28;20147;-75
2021/08/29 09:22:42;;;;;;;8.77;3.28;;;16.10;99.90;;;;;;4101877;28;20109;-76
2021/08/29 09:24:50;;;;;;;13.07;3.95;;;16.10;99.90;;;;;;4103681;28;20038;-76
2021/08/29 09:26:51;;;;;;;10.15;3.35;;;16.10;99.90;;;;;;4099672;28;20475;-75
2021/08/29 09:28:56;;;;;;;9.65;3.50;;;16.00;99.90;;;;;;4103370;28;20046;-75
2021/08/29 09:30:59;;;;;;;11.45;4.05;;;16.00;99.90;;;;;;4105292;28;20055;-75
2021/08/29 09:33:03;;;;;;;6.75;3.13;;;16.00;99.90;;;;;;4103704;28;20114;-75
2021/08/29 09:35:08;;;;;;;9.23;3.10;;;16.00;99.90;;;;;;4103716;28;20023;-75
2021/08/29 09:37:08;;;;;;;11.45;3.55;;;16.00;99.90;;;;;;4101156;28;20543;-75
2021/08/29 09:39:20;;;;;;;8.40;2.95;;;16.00;99.90;;;;;;4103216;28;20031;-75
2021/08/29 09:41:26;;;;;;;6.63;3.00;;;15.90;99.90;;;;;;4104444;28;20407;-75
2021/08/29 09:43:36;;;;;;;7.65;2.88;;;15.90;99.90;;;;;;4103045;28;20150;-75
2021/08/29 09:45:41;;;;;;;5.45;2.88;;;15.90;99.90;;;;;;4102234;28;20031;-75
2021/08/29 09:47:43;;;;;;;9.98;2.95;;;15.90;99.90;;;;;;4107827;28;20063;-75
2021/08/29 09:49:50;;;;;;;6.38;2.53;;;15.90;99.90;;;;;;4099497;28;20032;-75
2021/08/29 09:51:51;;;;;;;5.88;2.63;;;15.90;99.90;;;;;;4100471;28;20067;-75
2021/08/29 09:53:51;;;;;;;8.65;3.22;;;15.90;99.90;;;;;;4107442;28;20023;-75
2021/08/29 09:55:52;;;;;;;5.68;2.90;;;15.90;99.90;;;;;;4102372;28;20031;-75
2021/08/29 09:57:53;;;;;;;6.70;2.67;;;15.80;99.90;;;;;;4106525;28;20089;-75
2021/08/29 09:59:53;;;;;;;10.10;3.53;;;15.80;99.90;;;;;;4104742;28;20026;-75
2021/08/29 10:01:55;;;;;;;7.68;3.10;;;15.80;99.90;;;;;;4103076;28;20699;-75
2021/08/29 10:03:55;;;;;;;6.80;2.33;;;15.80;99.90;;;;;;4101752;28;20050;-75
2021/08/29 10:06:29;;;;;;;4.53;2.40;;;15.80;99.90;;;;;;4103724;28;20066;-75
2021/08/29 10:08:59;;;;;;;5.28;2.55;;;15.80;99.90;;;;;;4084013;28;20410;-75
2021/08/29 10:11:01;;;;;;;5.05;2.30;;;15.80;99.90;;;;;;4100866;28;20115;-75
2021/08/29 10:13:03;;;;;;;6.53;2.65;;;15.80;99.90;;;;;;4099887;28;20035;-75
2021/08/29 10:15:04;;;;;;;9.45;2.80;;;15.80;99.90;;;;;;4100919;28;20027;-75
2021/08/29 10:17:08;;;;;;;7.90;3.10;;;15.90;99.90;;;;;;4102481;28;20028;-75
2021/08/29 10:19:13;;;;;;;8.98;3.08;;;15.90;99.90;;;;;;4101466;28;20042;-75
2021/08/29 10:21:16;;;;;;;5.80;2.83;;;15.80;99.90;;;;;;4100204;28;20031;-75
2021/08/29 10:23:17;;;;;;;5.03;2.38;;;15.90;99.90;;;;;;4103068;28;20126;-75
2021/08/29 10:25:19;;;;;;;5.07;2.50;;;15.90;99.90;;;;;;4103961;28;20039;-75
2021/08/29 10:27:20;;;;;;;5.72;2.20;;;15.90;99.90;;;;;;4105463;28;20031;-75
2021/08/29 10:29:30;;;;;;;7.82;2.97;;;15.90;99.90;;;;;;4090034;28;20165;-75
2021/08/29 10:31:49;;;;;;;7.47;3.17;;;16.00;99.90;;;;;;4097794;28;20043;-75
2021/08/29 10:33:50;;;;;;;8.10;3.30;;;15.90;99.90;;;;;;4101420;28;20039;-75